createdAt,value
2018-05-29T00:01:18.152Z,100702.84
2018-05-29T00:03:46.183Z,100696.30
2018-05-29T00:06:14.406Z,100701.52
2018-05-29T00:08:42.429Z,100696.95
2018-05-29T00:11:10.435Z,100704.11
2018-05-29T00:13:38.507Z,100703.59
2018-05-29T00:16:06.519Z,100704.53
2018-05-29T00:18:34.548Z,100702.42
2018-05-29T00:21:02.557Z,100704.50
2018-05-29T00:23:30.796Z,100709.27
2018-05-29T00:25:58.815Z,100702.00
2018-05-29T00:28:26.834Z,100697.57
2018-05-29T00:30:55.120Z,100697.69
2018-05-29T00:33:23.150Z,100698.22
2018-05-29T00:35:51.240Z,100690.30
2018-05-29T00:38:19.272Z,100694.72
2018-05-29T00:40:47.285Z,100694.56
2018-05-29T00:43:15.320Z,100700.11
2018-05-29T00:45:43.330Z,100682.05
2018-05-29T00:48:11.384Z,100672.44
2018-05-29T00:50:39.625Z,100683.95
2018-05-29T00:53:07.648Z,100679.24
2018-05-29T00:55:37.330Z,100674.09
2018-05-29T00:58:05.631Z,100676.02
2018-05-29T01:00:33.660Z,100677.97
2018-05-29T01:03:01.655Z,100683.16
2018-05-29T01:05:29.676Z,100675.88
2018-05-29T01:07:57.703Z,100677.02
2018-05-29T01:10:25.727Z,100680.13
2018-05-29T01:12:53.741Z,100682.28
2018-05-29T01:15:21.936Z,100678.79
2018-05-29T01:17:50.133Z,100685.39
2018-05-29T01:20:18.164Z,100686.37
2018-05-29T01:22:46.671Z,100682.94
2018-05-29T01:25:14.696Z,100678.28
2018-05-29T01:27:42.702Z,100680.95
2018-05-29T01:30:10.967Z,100675.81
2018-05-29T01:32:39.849Z,100678.31
2018-05-29T01:35:07.876Z,100674.25
2018-05-29T01:37:35.889Z,100674.89
2018-05-29T01:40:03.919Z,100672.45
2018-05-29T01:42:31.932Z,100671.47
2018-05-29T01:44:59.958Z,100675.44
2018-05-29T01:47:27.967Z,100675.27
2018-05-29T01:49:56.238Z,100672.69
2018-05-29T01:52:24.254Z,100667.11
2018-05-29T01:54:55.227Z,100672.87
2018-05-29T01:57:23.235Z,100669.12
2018-05-29T01:59:51.254Z,100668.09
2018-05-29T02:02:19.260Z,100664.70
2018-05-29T02:04:47.288Z,100665.18
2018-05-29T02:07:17.528Z,100664.04
2018-05-29T02:09:45.690Z,100666.31
2018-05-29T02:12:13.727Z,100657.92
2018-05-29T02:14:41.891Z,100659.66
2018-05-29T02:17:10.791Z,100652.75
2018-05-29T02:19:38.811Z,100646.47
2018-05-29T02:22:06.817Z,100641.19
2018-05-29T02:24:34.988Z,100643.45
2018-05-29T02:27:03.156Z,100643.55
2018-05-29T02:29:31.143Z,100641.69
2018-05-29T02:31:59.308Z,100639.55
2018-05-29T02:34:27.576Z,100636.80
2018-05-29T02:36:55.583Z,100636.81
2018-05-29T02:39:23.723Z,100631.88
2018-05-29T02:41:51.988Z,100631.58
2018-05-29T02:44:20.019Z,100639.75
2018-05-29T02:46:48.039Z,100636.43
2018-05-29T02:49:16.324Z,100630.80
2018-05-29T02:51:44.595Z,100632.09
2018-05-29T02:54:12.926Z,100633.67
2018-05-29T02:56:41.705Z,100632.70
2018-05-29T02:59:10.332Z,100631.73
2018-05-29T03:01:38.362Z,100637.98
2018-05-29T03:04:06.371Z,100632.22
2018-05-29T03:06:34.647Z,100635.95
2018-05-29T03:09:03.572Z,100633.37
2018-05-29T03:11:31.663Z,100633.08
2018-05-29T03:13:59.665Z,100625.59
2018-05-29T03:16:27.867Z,100625.64
2018-05-29T03:18:55.879Z,100621.05
2018-05-29T03:21:23.912Z,100626.91
2018-05-29T03:23:51.921Z,100619.26
2018-05-29T03:26:19.948Z,100625.16
2018-05-29T03:28:47.955Z,100627.66
2018-05-29T03:31:15.984Z,100626.25
2018-05-29T03:33:44.179Z,100630.98
2018-05-29T03:36:12.201Z,100630.55
2018-05-29T03:38:40.687Z,100629.84
2018-05-29T03:41:08.888Z,100629.08
2018-05-29T03:43:36.899Z,100631.19
2018-05-29T03:46:04.915Z,100633.77
2018-05-29T03:48:33.203Z,100635.03
2018-05-29T03:51:01.277Z,100627.91
2018-05-29T03:53:29.285Z,100633.82
2018-05-29T03:55:57.308Z,100633.23
2018-05-29T03:58:25.493Z,100633.16
2018-05-29T04:00:53.764Z,100635.37
2018-05-29T04:03:21.775Z,100632.55
2018-05-29T04:05:49.804Z,100645.80
2018-05-29T04:08:17.912Z,100648.81
2018-05-29T04:10:45.932Z,100648.94
2018-05-29T04:13:14.409Z,100656.14
2018-05-29T04:15:42.472Z,100654.18
2018-05-29T04:18:11.500Z,100654.16
2018-05-29T04:20:39.525Z,100656.39
2018-05-29T04:23:07.579Z,100662.20
2018-05-29T04:25:35.590Z,100661.49
2018-05-29T04:28:03.599Z,100668.61
2018-05-29T04:30:31.610Z,100675.40
2018-05-29T04:32:59.628Z,100672.77
2018-05-29T04:35:28.118Z,100675.90
2018-05-29T04:37:56.275Z,100677.00
2018-05-29T04:40:24.289Z,100676.48
2018-05-29T04:42:52.623Z,100674.30
2018-05-29T04:45:20.623Z,100668.88
2018-05-29T04:47:49.076Z,100670.08
2018-05-29T04:50:17.079Z,100675.94
2018-05-29T04:52:45.127Z,100674.72
2018-05-29T04:55:13.266Z,100672.37
2018-05-29T04:57:41.287Z,100674.45
2018-05-29T05:00:09.295Z,100672.20
2018-05-29T05:02:37.355Z,100665.12
2018-05-29T05:05:05.327Z,100666.18
2018-05-29T05:07:33.961Z,100662.77
2018-05-29T05:10:02.206Z,100663.98
2018-05-29T05:12:30.225Z,100657.50
2018-05-29T05:14:58.228Z,100654.83
2018-05-29T05:17:27.253Z,100660.46
2018-05-29T05:19:55.255Z,100663.66
2018-05-29T05:22:23.284Z,100661.38
2018-05-29T05:24:54.921Z,100662.33
2018-05-29T05:27:22.980Z,100663.46
2018-05-29T05:29:50.995Z,100659.93
2018-05-29T05:32:19.004Z,100657.32
2018-05-29T05:34:47.031Z,100654.66
2018-05-29T05:37:15.102Z,100649.19
2018-05-29T05:39:43.124Z,100648.03
2018-05-29T05:42:11.142Z,100641.80
2018-05-29T05:44:39.164Z,100645.13
2018-05-29T05:47:07.204Z,100651.69
2018-05-29T05:49:35.878Z,100649.31
2018-05-29T05:52:03.924Z,100641.88
2018-05-29T05:54:32.216Z,100643.95
2018-05-29T05:57:00.254Z,100643.95
2018-05-29T05:59:28.277Z,100648.91
2018-05-29T06:01:56.573Z,100642.98
2018-05-29T06:04:24.575Z,100633.63
2018-05-29T06:06:52.782Z,100633.72
2018-05-29T06:09:20.927Z,100635.80
2018-05-29T06:11:48.948Z,100636.36
2018-05-29T06:14:16.951Z,100639.59
2018-05-29T06:16:44.979Z,100636.69
2018-05-29T06:19:13.008Z,100639.16
2018-05-29T06:21:41.672Z,100641.35
2018-05-29T06:24:09.700Z,100646.34
2018-05-29T06:26:37.706Z,100642.89
2018-05-29T06:29:05.735Z,100635.27
2018-05-29T06:31:34.003Z,100631.86
2018-05-29T06:34:02.183Z,100632.23
2018-05-29T06:36:30.259Z,100630.05
2018-05-29T06:38:58.286Z,100632.27
2018-05-29T06:41:26.290Z,100633.99
2018-05-29T06:43:54.455Z,100629.16
2018-05-29T06:46:22.468Z,100625.66
2018-05-29T06:48:50.494Z,100629.73
2018-05-29T06:51:18.668Z,100625.95
2018-05-29T06:53:46.956Z,100629.86
2018-05-29T06:56:15.122Z,100626.38
2018-05-29T06:58:43.151Z,100632.22
2018-05-29T07:01:11.160Z,100630.63
2018-05-29T07:03:39.541Z,100626.31
2018-05-29T07:06:07.817Z,100635.42
2018-05-29T07:08:36.119Z,100626.64
2018-05-29T07:11:04.852Z,100616.80
2018-05-29T07:13:32.868Z,100613.41
2018-05-29T07:16:01.038Z,100615.98
2018-05-29T07:18:29.071Z,100615.01
2018-05-29T07:20:57.076Z,100621.23
2018-05-29T07:23:25.107Z,100619.61
2018-05-29T07:25:53.117Z,100611.48
2018-05-29T07:28:21.416Z,100598.41
2018-05-29T07:30:49.427Z,100609.99
2018-05-29T07:33:17.466Z,100601.62
2018-05-29T07:35:45.705Z,100603.19
2018-05-29T07:38:13.745Z,100602.74
2018-05-29T07:40:42.255Z,100596.50
2018-05-29T07:43:10.431Z,100594.69
2018-05-29T07:45:38.463Z,100601.86
2018-05-29T07:48:06.743Z,100603.55
2018-05-29T07:50:34.777Z,100585.20
2018-05-29T07:53:03.331Z,100585.81
2018-05-29T07:55:31.491Z,100576.51
2018-05-29T07:57:59.667Z,100570.92
2018-05-29T08:00:27.720Z,100572.28
2018-05-29T08:02:55.730Z,100573.30
2018-05-29T08:05:23.721Z,100579.19
2018-05-29T08:07:51.746Z,100570.45
2018-05-29T08:10:20.086Z,100570.30
2018-05-29T08:12:48.320Z,100569.03
2018-05-29T08:15:16.344Z,100565.33
2018-05-29T08:17:44.660Z,100560.39
2018-05-29T08:20:12.687Z,100562.30
2018-05-29T08:22:40.692Z,100557.95
2018-05-29T08:25:08.861Z,100561.45
2018-05-29T08:27:37.143Z,100555.63
2018-05-29T08:30:05.413Z,100558.92
2018-05-29T08:32:33.485Z,100553.52
2018-05-29T08:35:01.528Z,100558.78
2018-05-29T08:37:29.732Z,100547.26
2018-05-29T08:39:58.005Z,100540.12
2018-05-29T08:42:26.286Z,100538.64
2018-05-29T08:44:54.316Z,100540.56
2018-05-29T08:47:22.740Z,100543.47
2018-05-29T08:49:50.772Z,100539.78
2018-05-29T08:52:18.775Z,100537.91
2018-05-29T08:54:46.840Z,100531.30
2018-05-29T08:57:14.844Z,100533.36
2018-05-29T08:59:42.996Z,100536.51
2018-05-29T09:02:11.276Z,100525.92
2018-05-29T09:04:39.548Z,100537.05
2018-05-29T09:07:07.591Z,100534.89
2018-05-29T09:09:35.608Z,100533.03
2018-05-29T09:12:03.760Z,100535.10
2018-05-29T09:14:31.768Z,100527.88
2018-05-29T09:16:59.792Z,100532.73
2018-05-29T09:19:27.799Z,100518.53
2018-05-29T09:21:56.107Z,100525.69
2018-05-29T09:24:24.158Z,100520.79
2018-05-29T09:26:52.755Z,100519.91
2018-05-29T09:29:20.763Z,100512.34
2018-05-29T09:31:48.784Z,100516.12
2018-05-29T09:34:16.810Z,100520.58
2018-05-29T09:36:45.094Z,100515.44
2018-05-29T09:39:13.088Z,100516.60
2018-05-29T09:41:41.109Z,100516.08
2018-05-29T09:44:09.310Z,100511.67
2018-05-29T09:46:37.467Z,100503.09
2018-05-29T09:49:05.664Z,100503.05
2018-05-29T09:51:33.822Z,100497.52
2018-05-29T09:54:01.924Z,100491.23
2018-05-29T09:56:29.959Z,100489.51
2018-05-29T09:58:57.967Z,100491.28
2018-05-29T10:01:25.997Z,100491.81
2018-05-29T10:03:54.004Z,100488.62
2018-05-29T10:06:22.026Z,100482.62
2018-05-29T10:08:50.134Z,100483.28
2018-05-29T10:11:18.190Z,100480.50
2018-05-29T10:13:47.104Z,100473.67
2018-05-29T10:16:15.129Z,100474.27
2018-05-29T10:18:43.140Z,100477.45
2018-05-29T10:21:11.210Z,100470.39
2018-05-29T10:23:39.459Z,100469.44
2018-05-29T10:26:07.490Z,100473.10
2018-05-29T10:28:35.496Z,100470.11
2018-05-29T10:31:03.701Z,100472.00
2018-05-29T10:33:31.682Z,100475.15
2018-05-29T10:35:59.700Z,100475.13
2018-05-29T10:38:28.654Z,100473.96
2018-05-29T10:40:57.089Z,100479.62
2018-05-29T10:43:25.143Z,100474.58
2018-05-29T10:45:53.300Z,100468.86
2018-05-29T10:48:21.322Z,100459.34
2018-05-29T10:50:49.339Z,100459.47
2018-05-29T10:53:17.384Z,100460.50
2018-05-29T10:55:45.383Z,100461.60
2018-05-29T10:58:13.584Z,100458.63
2018-05-29T11:00:41.771Z,100458.05
2018-05-29T11:03:10.088Z,100447.98
2018-05-29T11:05:38.349Z,100448.70
2018-05-29T11:08:06.502Z,100444.63
2018-05-29T11:10:34.511Z,100445.16
2018-05-29T11:13:02.557Z,100442.02
2018-05-29T11:15:30.581Z,100443.53
2018-05-29T11:17:58.598Z,100447.39
2018-05-29T11:20:26.599Z,100444.66
2018-05-29T11:22:54.635Z,100440.52
2018-05-29T11:25:22.783Z,100434.95
2018-05-29T11:27:50.798Z,100435.70
2018-05-29T11:30:18.826Z,100429.77
2018-05-29T11:32:46.842Z,100426.70
2018-05-29T11:35:14.851Z,100415.17
2018-05-29T11:37:42.877Z,100417.57
2018-05-29T11:40:11.203Z,100414.69
2018-05-29T11:42:39.235Z,100407.84
2018-05-29T11:45:07.247Z,100406.27
2018-05-29T11:47:35.265Z,100405.41
2018-05-29T11:50:03.284Z,100396.44
2018-05-29T11:52:31.320Z,100395.43
2018-05-29T11:54:59.497Z,100381.96
2018-05-29T11:57:27.451Z,100385.34
2018-05-29T12:02:28.888Z,100369.27
2018-05-29T12:04:57.382Z,100365.05
2018-05-29T12:07:25.388Z,100355.30
2018-05-29T12:09:53.406Z,100357.24
2018-05-29T12:12:25.266Z,100351.09
2018-05-29T12:14:53.278Z,100347.02
2018-05-29T12:17:21.571Z,100350.80
2018-05-29T12:19:49.642Z,100343.19
2018-05-29T12:22:17.645Z,100339.26
2018-05-29T12:24:46.776Z,100343.00
2018-05-29T12:27:18.071Z,100343.08
2018-05-29T12:29:46.110Z,100345.89
2018-05-29T12:32:14.128Z,100348.91
2018-05-29T12:34:42.164Z,100337.78
2018-05-29T12:37:10.175Z,100357.09
2018-05-29T12:39:38.187Z,100356.52
2018-05-29T12:42:06.209Z,100356.45
2018-05-29T12:44:34.259Z,100343.73
2018-05-29T12:47:02.278Z,100339.48
2018-05-29T12:49:30.575Z,100337.03
2018-05-29T12:51:58.590Z,100338.52
2018-05-29T12:54:26.619Z,100334.52
2018-05-29T12:56:54.683Z,100334.76
2018-05-29T12:59:22.886Z,100327.83
2018-05-29T13:01:50.884Z,100323.73
2018-05-29T13:04:19.039Z,100335.48
2018-05-29T13:06:47.064Z,100339.62
2018-05-29T13:09:15.090Z,100341.66
2018-05-29T13:11:43.115Z,100356.23
2018-05-29T13:14:11.145Z,100340.90
2018-05-29T13:16:39.416Z,100344.82
2018-05-29T13:19:07.432Z,100340.45
2018-05-29T13:21:35.464Z,100344.17
2018-05-29T13:24:03.499Z,100340.62
2018-05-29T13:26:31.520Z,100345.05
2018-05-29T13:28:59.565Z,100335.85
2018-05-29T13:31:27.565Z,100334.22
2018-05-29T13:33:55.595Z,100337.20
2018-05-29T13:36:23.621Z,100334.24
2018-05-29T13:38:51.648Z,100342.02
2018-05-29T13:41:19.654Z,100344.53
2018-05-29T13:43:47.671Z,100351.98
2018-05-29T13:46:15.679Z,100365.06
2018-05-29T13:48:43.715Z,100368.75
2018-05-29T13:51:11.928Z,100376.64
2018-05-29T13:53:39.954Z,100382.38
2018-05-29T13:56:08.160Z,100387.64
2018-05-29T13:58:36.195Z,100389.91
2018-05-29T14:01:04.482Z,100383.98
2018-05-29T14:03:32.488Z,100411.94
2018-05-29T14:06:00.523Z,100434.86
2018-05-29T14:08:28.530Z,100440.84
2018-05-29T14:10:56.571Z,100457.59
2018-05-29T14:13:24.583Z,100472.88
2018-05-29T14:15:52.605Z,100479.58
2018-05-29T14:18:20.619Z,100480.38
2018-05-29T14:20:48.656Z,100475.16
2018-05-29T14:23:16.663Z,100473.17
2018-05-29T14:25:45.192Z,100464.50
2018-05-29T14:28:13.396Z,100454.37
2018-05-29T14:30:41.416Z,100459.28
2018-05-29T14:33:10.223Z,100468.08
2018-05-29T14:35:38.252Z,100459.14
2018-05-29T14:38:06.514Z,100462.27
2018-05-29T14:40:34.530Z,100456.42
2018-05-29T14:43:02.716Z,100459.22
2018-05-29T14:45:30.736Z,100458.16
2018-05-29T14:47:58.743Z,100453.25
2018-05-29T14:50:26.780Z,100458.64
2018-05-29T14:52:54.789Z,100463.68
2018-05-29T14:55:22.819Z,100463.23
2018-05-29T14:57:50.972Z,100456.38
2018-05-29T15:00:18.995Z,100445.22
2018-05-29T15:02:47.175Z,100445.14
2018-05-29T15:05:15.207Z,100451.58
2018-05-29T15:07:43.971Z,100452.03
2018-05-29T15:10:12.211Z,100445.64
2018-05-29T15:12:40.208Z,100449.86
2018-05-29T15:15:08.239Z,100440.87
2018-05-29T15:17:36.294Z,100442.99
2018-05-29T15:20:04.320Z,100451.28
2018-05-29T15:22:32.898Z,100460.87
2018-05-29T15:25:01.243Z,100462.06
2018-05-29T15:27:29.188Z,100483.12
2018-05-29T15:29:57.511Z,100482.27
2018-05-29T15:32:26.404Z,100509.56
2018-05-29T15:34:54.625Z,100497.14
2018-05-29T15:37:22.725Z,100492.21
2018-05-29T15:39:51.015Z,100499.69
2018-05-29T15:42:19.012Z,100515.94
2018-05-29T15:44:47.024Z,100518.63
2018-05-29T15:47:15.239Z,100514.44
2018-05-29T15:49:43.267Z,100506.91
2018-05-29T15:52:11.303Z,100515.94
2018-05-29T15:54:39.295Z,100527.63
2018-05-29T15:57:07.318Z,100543.29
2018-05-29T15:59:36.004Z,100559.33
2018-05-29T16:02:04.019Z,100561.88
2018-05-29T16:04:32.048Z,100573.54
2018-05-29T16:09:27.216Z,100559.71
2018-05-29T16:11:55.332Z,100558.91
2018-05-29T16:14:23.327Z,100551.08
2018-05-29T16:16:51.567Z,100550.44
2018-05-29T16:19:19.738Z,100543.91
2018-05-29T16:21:47.772Z,100549.69
2018-05-29T16:24:15.786Z,100549.45
2018-05-29T16:26:44.513Z,100548.15
2018-05-29T16:29:12.523Z,100548.66
2018-05-29T16:31:40.559Z,100540.33
2018-05-29T16:34:08.726Z,100537.05
2018-05-29T16:36:36.752Z,100538.27
2018-05-29T16:39:05.752Z,100538.78
2018-05-29T16:41:34.024Z,100531.38
2018-05-29T16:44:02.864Z,100530.28
2018-05-29T16:46:31.206Z,100523.28
2018-05-29T16:48:59.268Z,100516.61
2018-05-29T16:51:27.271Z,100515.39
2018-05-29T16:53:55.403Z,100501.49
2018-05-29T16:56:23.452Z,100486.66
2018-05-29T16:58:51.451Z,100480.06
2018-05-29T17:01:19.479Z,100467.77
2018-05-29T17:03:47.491Z,100460.68
2018-05-29T17:06:15.511Z,100457.25
2018-05-29T17:08:43.519Z,100457.54
2018-05-29T17:11:11.685Z,100445.47
2018-05-29T17:13:39.751Z,100447.48
2018-05-29T17:16:07.796Z,100449.83
2018-05-29T17:18:36.019Z,100448.06
2018-05-29T17:21:04.262Z,100437.91
2018-05-29T17:23:32.275Z,100449.82
2018-05-29T17:26:00.303Z,100444.39
2018-05-29T17:28:28.555Z,100441.56
2018-05-29T17:30:56.595Z,100433.68
2018-05-29T17:33:24.650Z,100433.68
2018-05-29T17:35:52.699Z,100434.14
2018-05-29T17:38:20.761Z,100441.25
2018-05-29T17:40:48.787Z,100440.86
2018-05-29T17:43:16.851Z,100445.66
2018-05-29T17:45:44.888Z,100439.77
2018-05-29T17:48:13.033Z,100435.45
2018-05-29T17:50:41.074Z,100432.43
2018-05-29T17:53:09.085Z,100433.85
2018-05-29T17:55:37.095Z,100435.31
2018-05-29T17:58:05.369Z,100435.97
2018-05-29T18:00:33.515Z,100422.02
2018-05-29T18:03:01.643Z,100438.06
2018-05-29T18:05:30.180Z,100450.36
2018-05-29T18:07:58.280Z,100455.64
2018-05-29T18:10:26.251Z,100461.31
2018-05-29T18:12:54.429Z,100475.74
2018-05-29T18:15:22.583Z,100482.59
2018-05-29T18:17:50.619Z,100490.56
2018-05-29T18:20:19.150Z,100487.75
2018-05-29T18:22:47.386Z,100499.16
2018-05-29T18:25:15.543Z,100510.61
2018-05-29T18:27:43.683Z,100517.28
2018-05-29T18:30:11.695Z,100518.22
2018-05-29T18:32:39.742Z,100520.12
2018-05-29T18:35:07.731Z,100525.91
2018-05-29T18:37:35.747Z,100530.64
2018-05-29T18:40:03.767Z,100534.88
2018-05-29T18:42:31.791Z,100539.62
2018-05-29T18:44:59.787Z,100552.69
2018-05-29T18:47:27.871Z,100564.39
2018-05-29T18:49:55.903Z,100559.16
2018-05-29T18:52:23.884Z,100556.13
2018-05-29T18:54:53.715Z,100547.05
2018-05-29T18:57:21.755Z,100559.14
2018-05-29T18:59:49.778Z,100564.98
2018-05-29T19:02:17.806Z,100566.31
2018-05-29T19:04:45.833Z,100576.06
2018-05-29T19:07:13.860Z,100581.95
2018-05-29T19:09:41.893Z,100588.14
2018-05-29T19:12:09.925Z,100588.55
2018-05-29T19:14:38.169Z,100590.31
2018-05-29T19:17:06.321Z,100595.02
2018-05-29T19:19:34.863Z,100597.53
2018-05-29T19:22:02.901Z,100600.67
2018-05-29T19:24:30.907Z,100594.41
2018-05-29T19:26:58.915Z,100585.85
2018-05-29T19:29:26.937Z,100588.11
2018-05-29T19:31:55.108Z,100587.67
2018-05-29T19:34:23.190Z,100592.98
2018-05-29T19:36:51.216Z,100589.28
2018-05-29T19:39:19.231Z,100587.48
2018-05-29T19:41:47.256Z,100592.56
2018-05-29T19:44:15.280Z,100586.95
2018-05-29T19:46:43.319Z,100588.16
2018-05-29T19:49:11.364Z,100585.80
2018-05-29T19:51:39.365Z,100587.09
2018-05-29T19:54:07.406Z,100590.03
2018-05-29T19:56:35.412Z,100583.81
2018-05-29T19:59:03.455Z,100592.59
2018-05-29T20:01:31.464Z,100591.83
2018-05-29T20:03:59.503Z,100597.11
2018-05-29T20:06:27.521Z,100601.49
2018-05-29T20:08:55.574Z,100605.22
2018-05-29T20:11:23.575Z,100601.12
2018-05-29T20:13:51.606Z,100598.67
2018-05-29T20:16:19.851Z,100605.16
2018-05-29T20:18:47.885Z,100600.53
2018-05-29T20:21:15.895Z,100598.09
2018-05-29T20:23:43.942Z,100596.03
2018-05-29T20:26:11.955Z,100590.70
2018-05-29T20:28:39.993Z,100593.84
2018-05-29T20:31:08.544Z,100586.61
2018-05-29T20:33:36.580Z,100564.72
2018-05-29T20:36:04.600Z,100569.47
2018-05-29T20:38:32.636Z,100563.31
2018-05-29T20:41:00.643Z,100567.62
2018-05-29T20:43:28.696Z,100567.11
2018-05-29T20:45:56.708Z,100571.85
2018-05-29T20:48:24.735Z,100558.45
2018-05-29T20:50:52.736Z,100555.52
2018-05-29T20:53:20.759Z,100551.56
2018-05-29T20:55:48.767Z,100549.59
2018-05-29T20:58:16.825Z,100547.18
2018-05-29T21:00:44.839Z,100552.03
2018-05-29T21:03:12.877Z,100542.72
2018-05-29T21:05:40.893Z,100539.46
2018-05-29T21:08:08.919Z,100535.09
2018-05-29T21:10:36.923Z,100531.59
2018-05-29T21:13:04.940Z,100537.23
2018-05-29T21:15:32.995Z,100531.34
2018-05-29T21:18:01.011Z,100526.26
2018-05-29T21:20:29.045Z,100527.09
2018-05-29T21:22:57.404Z,100536.41
2018-05-29T21:25:25.607Z,100541.70
2018-05-29T21:27:53.646Z,100531.31
2018-05-29T21:30:21.959Z,100541.58
2018-05-29T21:32:50.227Z,100545.13
2018-05-29T21:35:18.276Z,100545.64
2018-05-29T21:37:46.284Z,100542.31
2018-05-29T21:40:14.446Z,100556.95
2018-05-29T21:42:43.154Z,100570.41
2018-05-29T21:45:11.195Z,100566.25
2018-05-29T21:47:39.212Z,100571.97
2018-05-29T21:50:07.249Z,100574.14
2018-05-29T21:52:35.521Z,100568.85
2018-05-29T21:55:03.592Z,100570.30
2018-05-29T21:57:31.598Z,100564.70
2018-05-29T21:59:59.643Z,100569.91
2018-05-29T22:02:27.768Z,100570.28
2018-05-29T22:04:55.801Z,100574.77
2018-05-29T22:07:23.795Z,100578.39
2018-05-29T22:09:51.821Z,100582.84
2018-05-29T22:12:19.824Z,100581.80
2018-05-29T22:14:52.727Z,100590.95
2018-05-29T22:17:20.707Z,100587.23
2018-05-29T22:19:48.732Z,100587.00
2018-05-29T22:22:16.760Z,100591.27
2018-05-29T22:24:44.803Z,100590.75
2018-05-29T22:27:12.803Z,100590.85
2018-05-29T22:29:40.839Z,100596.53
2018-05-29T22:32:08.971Z,100601.51
2018-05-29T22:34:37.013Z,100597.45
2018-05-29T22:37:05.034Z,100599.94
2018-05-29T22:39:33.332Z,100602.04
2018-05-29T22:42:02.255Z,100602.35
2018-05-29T22:44:30.292Z,100606.41
2018-05-29T22:46:58.312Z,100602.78
2018-05-29T22:49:26.395Z,100604.00
2018-05-29T22:51:54.404Z,100607.08
2018-05-29T22:54:22.426Z,100603.55
2018-05-29T22:56:50.447Z,100603.89
2018-05-29T22:59:18.466Z,100603.48
2018-05-29T23:01:46.475Z,100607.25
2018-05-29T23:04:14.517Z,100608.28
2018-05-29T23:06:42.522Z,100612.59
2018-05-29T23:09:10.544Z,100613.68
2018-05-29T23:11:38.606Z,100605.06
2018-05-29T23:14:07.123Z,100618.73
2018-05-29T23:16:35.149Z,100616.05
2018-05-29T23:19:03.159Z,100614.77
2018-05-29T23:21:31.420Z,100617.92
2018-05-29T23:23:59.446Z,100621.03
2018-05-29T23:26:27.472Z,100629.62
2018-05-29T23:28:55.480Z,100626.33
2018-05-29T23:31:23.503Z,100627.50
2018-05-29T23:33:52.226Z,100631.61
2018-05-29T23:36:20.241Z,100630.07
2018-05-29T23:38:48.507Z,100624.00
2018-05-29T23:41:16.708Z,100627.00
2018-05-29T23:43:44.975Z,100629.69
2018-05-29T23:46:13.006Z,100622.97
2018-05-29T23:48:41.016Z,100623.14
2018-05-29T23:51:09.044Z,100617.86
2018-05-29T23:53:37.056Z,100618.61
2018-05-29T23:56:05.327Z,100619.33
2018-05-29T23:58:33.344Z,100617.77
